sensor_id;sensor_type;location;lat;lon;timestamp;pressure;altitude;pressure_sealevel;temperature;humidity
45078;BME280;60508;42.622;25.416;2023-05-07T00:00:22;97055.19;;;15.40;69.67
45078;BME280;60508;42.622;25.416;2023-05-07T00:02:48;97051.16;;;15.38;69.72
45078;BME280;60508;42.622;25.416;2023-05-07T00:05:15;97052.22;;;15.31;69.86
45078;BME280;60508;42.622;25.416;2023-05-07T00:07:41;97049.19;;;15.23;69.79
45078;BME280;60508;42.622;25.416;2023-05-07T00:10:07;97058.16;;;15.23;69.77
45078;BME280;60508;42.622;25.416;2023-05-07T00:12:34;97059.50;;;15.26;69.28
45078;BME280;60508;42.622;25.416;2023-05-07T00:15:02;97058.69;;;15.36;69.08
45078;BME280;60508;42.622;25.416;2023-05-07T00:17:29;97053.00;;;15.32;69.18
45078;BME280;60508;42.622;25.416;2023-05-07T00:19:56;97050.84;;;15.34;68.91
45078;BME280;60508;42.622;25.416;2023-05-07T00:22:21;97054.38;;;15.34;68.74
45078;BME280;60508;42.622;25.416;2023-05-07T00:24:48;97048.44;;;15.38;68.73
45078;BME280;60508;42.622;25.416;2023-05-07T00:27:14;97051.69;;;15.45;68.47
45078;BME280;60508;42.622;25.416;2023-05-07T00:29:40;97046.28;;;15.40;68.50
45078;BME280;60508;42.622;25.416;2023-05-07T00:32:07;97028.38;;;15.33;68.37
45078;BME280;60508;42.622;25.416;2023-05-07T00:34:33;97051.94;;;15.38;68.29
45078;BME280;60508;42.622;25.416;2023-05-07T00:37:01;97047.00;;;15.09;69.15
45078;BME280;60508;42.622;25.416;2023-05-07T00:39:27;97051.06;;;15.12;69.41
45078;BME280;60508;42.622;25.416;2023-05-07T00:41:53;97047.84;;;15.15;68.81
45078;BME280;60508;42.622;25.416;2023-05-07T00:44:19;97045.66;;;15.17;68.80
45078;BME280;60508;42.622;25.416;2023-05-07T00:46:45;97053.25;;;15.15;69.06
45078;BME280;60508;42.622;25.416;2023-05-07T00:49:14;97053.25;;;15.15;68.94
45078;BME280;60508;42.622;25.416;2023-05-07T00:51:40;97044.00;;;15.01;68.48
45078;BME280;60508;42.622;25.416;2023-05-07T00:54:07;97048.81;;;14.83;69.45
45078;BME280;60508;42.622;25.416;2023-05-07T00:56:34;97032.31;;;14.37;68.59
45078;BME280;60508;42.622;25.416;2023-05-07T00:59:02;97054.63;;;14.59;69.78
45078;BME280;60508;42.622;25.416;2023-05-07T01:01:28;97049.28;;;14.70;69.84
45078;BME280;60508;42.622;25.416;2023-05-07T01:03:55;97057.91;;;14.62;69.00
45078;BME280;60508;42.622;25.416;2023-05-07T01:06:23;97052.56;;;14.77;69.20
45078;BME280;60508;42.622;25.416;2023-05-07T01:08:52;97046.47;;;14.54;70.54
45078;BME280;60508;42.622;25.416;2023-05-07T01:11:19;97043.88;;;14.65;70.10
45078;BME280;60508;42.622;25.416;2023-05-07T01:13:47;97045.22;;;14.67;69.26
45078;BME280;60508;42.622;25.416;2023-05-07T01:16:14;97056.03;;;14.72;69.08
45078;BME280;60508;42.622;25.416;2023-05-07T01:18:42;97046.25;;;14.61;69.21
45078;BME280;60508;42.622;25.416;2023-05-07T01:21:10;97050.88;;;14.66;69.24
45078;BME280;60508;42.622;25.416;2023-05-07T01:23:38;97035.56;;;14.39;69.97
45078;BME280;60508;42.622;25.416;2023-05-07T01:26:06;97046.56;;;14.27;70.70
45078;BME280;60508;42.622;25.416;2023-05-07T01:28:33;97037.44;;;14.33;70.46
45078;BME280;60508;42.622;25.416;2023-05-07T01:31:02;97032.03;;;14.38;69.36
45078;BME280;60508;42.622;25.416;2023-05-07T01:33:32;97039.97;;;14.07;70.32
45078;BME280;60508;42.622;25.416;2023-05-07T01:36:00;97043.44;;;14.03;70.56
45078;BME280;60508;42.622;25.416;2023-05-07T01:38:28;97050.47;;;14.04;68.94
45078;BME280;60508;42.622;25.416;2023-05-07T01:40:55;97042.16;;;14.16;68.30
45078;BME280;60508;42.622;25.416;2023-05-07T01:43:21;97049.81;;;13.92;68.75
45078;BME280;60508;42.622;25.416;2023-05-07T01:45:48;97040.50;;;13.72;69.44
45078;BME280;60508;42.622;25.416;2023-05-07T01:48:15;97035.63;;;13.74;70.02
45078;BME280;60508;42.622;25.416;2023-05-07T01:50:42;97039.41;;;13.41;70.32
45078;BME280;60508;42.622;25.416;2023-05-07T01:53:08;97032.38;;;13.18;70.91
45078;BME280;60508;42.622;25.416;2023-05-07T01:55:34;97041.56;;;12.94;72.62
45078;BME280;60508;42.622;25.416;2023-05-07T01:58:03;97035.53;;;12.43;74.17
45078;BME280;60508;42.622;25.416;2023-05-07T02:00:30;97039.59;;;12.23;74.93
45078;BME280;60508;42.622;25.416;2023-05-07T02:02:56;97031.53;;;12.07;76.23
45078;BME280;60508;42.622;25.416;2023-05-07T02:05:32;97029.41;;;12.09;78.32
45078;BME280;60508;42.622;25.416;2023-05-07T02:08:03;97031.38;;;12.13;78.68
45078;BME280;60508;42.622;25.416;2023-05-07T02:10:30;97033.25;;;12.13;78.63
45078;BME280;60508;42.622;25.416;2023-05-07T02:12:56;97027.75;;;12.24;78.06
45078;BME280;60508;42.622;25.416;2023-05-07T02:15:23;97026.66;;;12.42;77.39
45078;BME280;60508;42.622;25.416;2023-05-07T02:18:07;97018.81;;;12.41;77.99
45078;BME280;60508;42.622;25.416;2023-05-07T02:20:34;96998.31;;;12.40;77.95
45078;BME280;60508;42.622;25.416;2023-05-07T02:23:00;97019.53;;;12.53;77.71
45078;BME280;60508;42.622;25.416;2023-05-07T02:25:29;97010.50;;;12.65;77.85
45078;BME280;60508;42.622;25.416;2023-05-07T02:27:55;97021.69;;;12.78;77.12
45078;BME280;60508;42.622;25.416;2023-05-07T02:30:27;97016.50;;;12.72;76.68
45078;BME280;60508;42.622;25.416;2023-05-07T02:32:56;97021.06;;;12.93;75.75
45078;BME280;60508;42.622;25.416;2023-05-07T02:35:24;97014.03;;;13.14;75.04
45078;BME280;60508;42.622;25.416;2023-05-07T02:37:51;97006.59;;;12.77;76.04
45078;BME280;60508;42.622;25.416;2023-05-07T02:40:17;97005.22;;;12.75;76.26
45078;BME280;60508;42.622;25.416;2023-05-07T02:42:43;96982.91;;;12.79;75.96
45078;BME280;60508;42.622;25.416;2023-05-07T02:45:09;96991.13;;;12.95;76.01
45078;BME280;60508;42.622;25.416;2023-05-07T02:47:36;97002.63;;;12.85;77.01
45078;BME280;60508;42.622;25.416;2023-05-07T02:50:03;96998.06;;;12.86;77.11
45078;BME280;60508;42.622;25.416;2023-05-07T02:52:29;97003.03;;;12.72;77.60
45078;BME280;60508;42.622;25.416;2023-05-07T02:54:56;97005.03;;;12.59;77.33
45078;BME280;60508;42.622;25.416;2023-05-07T02:57:22;97000.91;;;12.52;77.49
45078;BME280;60508;42.622;25.416;2023-05-07T02:59:48;97008.31;;;12.62;76.97
45078;BME280;60508;42.622;25.416;2023-05-07T03:02:15;96999.72;;;12.65;77.27
45078;BME280;60508;42.622;25.416;2023-05-07T03:04:41;97003.03;;;12.72;77.33
45078;BME280;60508;42.622;25.416;2023-05-07T03:07:07;96991.03;;;12.63;77.65
45078;BME280;60508;42.622;25.416;2023-05-07T03:09:34;97013.56;;;12.73;77.49
45078;BME280;60508;42.622;25.416;2023-05-07T03:12:00;97007.34;;;12.51;78.62
45078;BME280;60508;42.622;25.416;2023-05-07T03:14:27;97002.59;;;12.58;79.31
45078;BME280;60508;42.622;25.416;2023-05-07T03:16:53;97008.75;;;12.53;79.54
45078;BME280;60508;42.622;25.416;2023-05-07T03:19:19;97014.22;;;12.41;80.51
45078;BME280;60508;42.622;25.416;2023-05-07T03:21:45;97009.09;;;12.62;80.07
45078;BME280;60508;42.622;25.416;2023-05-07T03:24:11;97007.09;;;12.74;79.84
45078;BME280;60508;42.622;25.416;2023-05-07T03:26:37;97005.09;;;12.65;80.53
45078;BME280;60508;42.622;25.416;2023-05-07T03:29:04;97014.50;;;12.84;79.69
45078;BME280;60508;42.622;25.416;2023-05-07T03:31:30;97007.91;;;12.75;79.99
45078;BME280;60508;42.622;25.416;2023-05-07T03:33:56;97010.16;;;12.61;80.90
45078;BME280;60508;42.622;25.416;2023-05-07T03:36:24;97012.13;;;12.44;80.03
45078;BME280;60508;42.622;25.416;2023-05-07T03:38:52;97004.84;;;12.44;81.13
45078;BME280;60508;42.622;25.416;2023-05-07T03:41:22;97021.25;;;12.42;81.82
45078;BME280;60508;42.622;25.416;2023-05-07T03:43:48;97007.41;;;12.56;81.99
45078;BME280;60508;42.622;25.416;2023-05-07T03:46:14;97017.00;;;12.69;83.21
45078;BME280;60508;42.622;25.416;2023-05-07T03:48:40;97012.34;;;12.86;83.03
45078;BME280;60508;42.622;25.416;2023-05-07T03:51:06;97003.50;;;12.91;81.10
45078;BME280;60508;42.622;25.416;2023-05-07T03:53:33;97022.69;;;12.94;81.75
45078;BME280;60508;42.622;25.416;2023-05-07T03:55:59;97012.72;;;12.95;82.22
45078;BME280;60508;42.622;25.416;2023-05-07T03:58:25;97023.31;;;13.02;81.97
45078;BME280;60508;42.622;25.416;2023-05-07T04:00:53;97023.13;;;13.08;81.36
45078;BME280;60508;42.622;25.416;2023-05-07T04:03:26;97023.13;;;13.08;81.46
45078;BME280;60508;42.622;25.416;2023-05-07T04:06:17;97018.50;;;12.82;81.18
45078;BME280;60508;42.622;25.416;2023-05-07T04:08:46;97018.81;;;12.85;81.63
45078;BME280;60508;42.622;25.416;2023-05-07T04:11:13;97019.06;;;12.84;81.34
45078;BME280;60508;42.622;25.416;2023-05-07T04:13:38;97005.81;;;12.82;81.04
45078;BME280;60508;42.622;25.416;2023-05-07T04:16:07;97015.06;;;12.86;81.66
45078;BME280;60508;42.622;25.416;2023-05-07T04:18:35;97017.72;;;13.08;80.36
45078;BME280;60508;42.622;25.416;2023-05-07T04:21:01;97029.69;;;13.18;79.56
45078;BME280;60508;42.622;25.416;2023-05-07T04:23:27;97030.84;;;13.27;79.10
45078;BME280;60508;42.622;25.416;2023-05-07T04:25:54;97035.28;;;13.11;78.94
45078;BME280;60508;42.622;25.416;2023-05-07T04:28:30;97037.38;;;12.82;80.22
45078;BME280;60508;42.622;25.416;2023-05-07T04:30:57;97033.69;;;12.66;80.34
45078;BME280;60508;42.622;25.416;2023-05-07T04:33:23;97044.41;;;12.83;80.04
45078;BME280;60508;42.622;25.416;2023-05-07T04:35:50;97039.69;;;12.95;79.47
45078;BME280;60508;42.622;25.416;2023-05-07T04:38:16;97027.69;;;13.08;78.94
45078;BME280;60508;42.622;25.416;2023-05-07T04:40:45;97052.84;;;13.13;78.83
45078;BME280;60508;42.622;25.416;2023-05-07T04:43:17;97031.22;;;13.08;78.40
45078;BME280;60508;42.622;25.416;2023-05-07T04:45:50;97046.53;;;13.03;78.41
45078;BME280;60508;42.622;25.416;2023-05-07T04:48:16;97043.88;;;13.08;78.39
45078;BME280;60508;42.622;25.416;2023-05-07T04:50:49;97045.31;;;13.15;77.87
45078;BME280;60508;42.622;25.416;2023-05-07T04:53:17;97054.09;;;13.06;78.46
45078;BME280;60508;42.622;25.416;2023-05-07T04:55:44;97044.72;;;13.08;78.16
45078;BME280;60508;42.622;25.416;2023-05-07T04:58:11;97054.75;;;13.13;78.82
45078;BME280;60508;42.622;25.416;2023-05-07T05:00:39;97052.09;;;13.18;77.89
45078;BME280;60508;42.622;25.416;2023-05-07T05:03:06;97033.25;;;13.23;77.54
45078;BME280;60508;42.622;25.416;2023-05-07T05:05:33;97040.91;;;13.31;76.93
45078;BME280;60508;42.622;25.416;2023-05-07T05:08:01;97052.47;;;13.54;76.12
45078;BME280;60508;42.622;25.416;2023-05-07T05:10:27;97050.00;;;13.47;76.16
45078;BME280;60508;42.622;25.416;2023-05-07T05:12:54;97054.94;;;13.56;76.08
45078;BME280;60508;42.622;25.416;2023-05-07T05:15:22;97061.50;;;13.65;75.66
45078;BME280;60508;42.622;25.416;2023-05-07T05:17:48;97058.28;;;13.68;75.25
45078;BME280;60508;42.622;25.416;2023-05-07T05:20:15;97073.56;;;13.84;74.38
45078;BME280;60508;42.622;25.416;2023-05-07T05:22:42;97070.13;;;13.94;73.20
45078;BME280;60508;42.622;25.416;2023-05-07T05:25:08;97074.53;;;14.05;73.17
45078;BME280;60508;42.622;25.416;2023-05-07T05:27:35;97047.31;;;13.80;72.39
45078;BME280;60508;42.622;25.416;2023-05-07T05:30:01;97068.25;;;14.00;71.31
45078;BME280;60508;42.622;25.416;2023-05-07T05:32:29;97084.53;;;14.05;71.22
45078;BME280;60508;42.622;25.416;2023-05-07T05:34:57;97081.88;;;14.10;70.12
45078;BME280;60508;42.622;25.416;2023-05-07T05:37:25;97057.16;;;13.96;70.27
45078;BME280;60508;42.622;25.416;2023-05-07T05:39:52;97075.06;;;14.07;70.18
45078;BME280;60508;42.622;25.416;2023-05-07T05:42:18;97070.63;;;14.29;70.27
45078;BME280;60508;42.622;25.416;2023-05-07T05:44:45;97079.63;;;14.39;70.61
45078;BME280;60508;42.622;25.416;2023-05-07T05:47:11;97075.66;;;14.52;70.39
45078;BME280;60508;42.622;25.416;2023-05-07T05:49:37;97083.00;;;14.57;69.62
45078;BME280;60508;42.622;25.416;2023-05-07T05:52:05;97085.78;;;14.72;69.34
45078;BME280;60508;42.622;25.416;2023-05-07T05:54:31;97082.84;;;14.79;69.48
45078;BME280;60508;42.622;25.416;2023-05-07T05:56:57;97084.50;;;14.80;69.77
45078;BME280;60508;42.622;25.416;2023-05-07T05:59:24;97081.53;;;14.87;70.09
45078;BME280;60508;42.622;25.416;2023-05-07T06:01:51;97085.53;;;14.74;71.27
45078;BME280;60508;42.622;25.416;2023-05-07T06:04:17;97093.72;;;14.84;71.41
45078;BME280;60508;42.622;25.416;2023-05-07T06:06:43;97085.63;;;14.89;70.46
45078;BME280;60508;42.622;25.416;2023-05-07T06:09:09;97079.44;;;14.94;70.39
45078;BME280;60508;42.622;25.416;2023-05-07T06:11:40;97071.84;;;14.96;69.99
45078;BME280;60508;42.622;25.416;2023-05-07T06:14:07;97084.59;;;15.06;69.37
45078;BME280;60508;42.622;25.416;2023-05-07T06:16:35;97075.13;;;15.03;70.35
45078;BME280;60508;42.622;25.416;2023-05-07T06:19:02;97084.34;;;15.07;69.68
45078;BME280;60508;42.622;25.416;2023-05-07T06:21:28;97083.84;;;15.26;70.42
45078;BME280;60508;42.622;25.416;2023-05-07T06:23:54;97074.94;;;15.36;69.86
45078;BME280;60508;42.622;25.416;2023-05-07T06:26:21;97069.00;;;15.33;69.95
45078;BME280;60508;42.622;25.416;2023-05-07T06:28:47;97081.19;;;15.41;67.56
45078;BME280;60508;42.622;25.416;2023-05-07T06:31:15;97080.41;;;15.41;68.89
45078;BME280;60508;42.622;25.416;2023-05-07T06:33:45;97075.25;;;15.55;69.03
45078;BME280;60508;42.622;25.416;2023-05-07T06:36:12;97074.75;;;15.73;67.65
45078;BME280;60508;42.622;25.416;2023-05-07T06:38:39;97080.22;;;15.88;67.09
45078;BME280;60508;42.622;25.416;2023-05-07T06:41:06;97077.22;;;15.85;65.83
45078;BME280;60508;42.622;25.416;2023-05-07T06:43:32;97072.09;;;15.88;66.69
45078;BME280;60508;42.622;25.416;2023-05-07T06:46:30;97072.91;;;15.94;66.77
45078;BME280;60508;42.622;25.416;2023-05-07T06:48:56;97059.63;;;16.03;66.52
45078;BME280;60508;42.622;25.416;2023-05-07T06:51:23;97067.19;;;16.16;65.75
45078;BME280;60508;42.622;25.416;2023-05-07T06:53:49;97053.09;;;16.19;61.90
45078;BME280;60508;42.622;25.416;2023-05-07T06:56:15;97070.66;;;16.58;59.83
45078;BME280;60508;42.622;25.416;2023-05-07T06:58:41;97060.66;;;16.48;61.64
45078;BME280;60508;42.622;25.416;2023-05-07T07:01:10;97068.22;;;16.56;60.90
45078;BME280;60508;42.622;25.416;2023-05-07T07:03:36;97068.19;;;16.72;61.13
45078;BME280;60508;42.622;25.416;2023-05-07T07:06:03;97068.75;;;16.69;55.93
45078;BME280;60508;42.622;25.416;2023-05-07T07:08:30;97071.47;;;16.69;55.66
45078;BME280;60508;42.622;25.416;2023-05-07T07:10:56;97073.34;;;16.73;54.07
45078;BME280;60508;42.622;25.416;2023-05-07T07:13:22;97078.19;;;16.92;55.53
45078;BME280;60508;42.622;25.416;2023-05-07T07:15:48;97072.94;;;17.16;53.68
45078;BME280;60508;42.622;25.416;2023-05-07T07:18:14;97077.75;;;17.34;51.97
45078;BME280;60508;42.622;25.416;2023-05-07T07:20:41;97077.66;;;17.50;49.92
45078;BME280;60508;42.622;25.416;2023-05-07T07:23:08;97069.47;;;17.55;50.88
45078;BME280;60508;42.622;25.416;2023-05-07T07:25:34;97065.84;;;17.70;50.69
45078;BME280;60508;42.622;25.416;2023-05-07T07:28:01;97080.69;;;17.88;46.82
45078;BME280;60508;42.622;25.416;2023-05-07T07:30:28;97075.75;;;17.95;45.90
45078;BME280;60508;42.622;25.416;2023-05-07T07:32:54;97080.34;;;18.00;46.82
45078;BME280;60508;42.622;25.416;2023-05-07T07:35:23;97084.91;;;18.04;45.09
45078;BME280;60508;42.622;25.416;2023-05-07T07:37:49;97080.00;;;18.06;46.05
45078;BME280;60508;42.622;25.416;2023-05-07T07:40:16;97082.84;;;18.25;47.54
45078;BME280;60508;42.622;25.416;2023-05-07T07:42:44;97090.28;;;18.44;47.22
45078;BME280;60508;42.622;25.416;2023-05-07T07:45:11;97094.22;;;18.57;44.18
45078;BME280;60508;42.622;25.416;2023-05-07T07:47:41;97090.28;;;18.44;42.64
45078;BME280;60508;42.622;25.416;2023-05-07T07:50:09;97094.22;;;18.57;44.20
45078;BME280;60508;42.622;25.416;2023-05-07T07:52:35;97096.31;;;18.41;43.13
45078;BME280;60508;42.622;25.416;2023-05-07T07:55:02;97096.22;;;18.51;44.13
45078;BME280;60508;42.622;25.416;2023-05-07T07:57:29;97091.38;;;18.43;43.60
45078;BME280;60508;42.622;25.416;2023-05-07T07:59:55;97091.06;;;18.50;44.14
45078;BME280;60508;42.622;25.416;2023-05-07T08:02:22;97101.25;;;18.63;44.15
45078;BME280;60508;42.622;25.416;2023-05-07T08:04:49;97095.66;;;18.78;44.16
45078;BME280;60508;42.622;25.416;2023-05-07T08:07:15;97095.94;;;18.77;43.26
45078;BME280;60508;42.622;25.416;2023-05-07T08:09:46;97082.75;;;18.65;42.91
45078;BME280;60508;42.622;25.416;2023-05-07T08:12:13;97087.28;;;18.75;44.31
45078;BME280;60508;42.622;25.416;2023-05-07T08:14:40;97086.69;;;19.02;43.78
45078;BME280;60508;42.622;25.416;2023-05-07T08:17:07;97081.06;;;19.18;43.53
45078;BME280;60508;42.622;25.416;2023-05-07T08:19:36;97084.63;;;19.37;42.59
45078;BME280;60508;42.622;25.416;2023-05-07T08:22:04;97085.44;;;19.38;42.11
45078;BME280;60508;42.622;25.416;2023-05-07T08:24:33;97073.88;;;19.46;41.24
45078;BME280;60508;42.622;25.416;2023-05-07T08:26:59;97074.84;;;19.55;39.90
45078;BME280;60508;42.622;25.416;2023-05-07T08:29:26;97085.63;;;19.65;39.56
45078;BME280;60508;42.622;25.416;2023-05-07T08:31:52;97089.94;;;19.47;37.85
45078;BME280;60508;42.622;25.416;2023-05-07T08:34:19;97080.00;;;19.38;37.53
45078;BME280;60508;42.622;25.416;2023-05-07T08:36:47;97081.28;;;19.64;37.96
45078;BME280;60508;42.622;25.416;2023-05-07T08:39:16;97074.72;;;19.65;37.18
45078;BME280;60508;42.622;25.416;2023-05-07T08:41:44;97073.41;;;20.01;38.52
45078;BME280;60508;42.622;25.416;2023-05-07T08:44:12;97069.50;;;20.21;37.74
45078;BME280;60508;42.622;25.416;2023-05-07T08:46:41;97072.94;;;20.27;36.16
45078;BME280;60508;42.622;25.416;2023-05-07T08:49:09;97070.84;;;20.23;36.18
45078;BME280;60508;42.622;25.416;2023-05-07T08:51:35;97057.59;;;20.31;36.17
45078;BME280;60508;42.622;25.416;2023-05-07T08:54:05;97064.91;;;20.49;35.55
45078;BME280;60508;42.622;25.416;2023-05-07T08:56:33;97062.00;;;20.13;34.81
45078;BME280;60508;42.622;25.416;2023-05-07T08:58:59;97060.63;;;20.29;35.13
45078;BME280;60508;42.622;25.416;2023-05-07T09:01:27;97052.09;;;21.33;34.80
45078;BME280;60508;42.622;25.416;2023-05-07T09:03:55;97054.06;;;22.59;33.58
45078;BME280;60508;42.622;25.416;2023-05-07T09:06:22;97068.06;;;22.98;31.52
45078;BME280;60508;42.622;25.416;2023-05-07T09:08:51;97065.16;;;23.69;30.75
45078;BME280;60508;42.622;25.416;2023-05-07T09:11:22;97076.06;;;24.74;30.15
45078;BME280;60508;42.622;25.416;2023-05-07T09:13:53;97066.72;;;25.35;28.59
45078;BME280;60508;42.622;25.416;2023-05-07T09:16:20;97061.78;;;25.49;28.04
45078;BME280;60508;42.622;25.416;2023-05-07T09:18:50;97074.88;;;26.16;27.61
45078;BME280;60508;42.622;25.416;2023-05-07T09:21:18;97063.06;;;25.52;27.34
45078;BME280;60508;42.622;25.416;2023-05-07T09:23:48;97059.91;;;25.83;27.85
45078;BME280;60508;42.622;25.416;2023-05-07T09:26:14;97064.41;;;25.67;27.03
45078;BME280;60508;42.622;25.416;2023-05-07T09:28:42;97054.53;;;25.15;27.81
45078;BME280;60508;42.622;25.416;2023-05-07T09:31:11;97049.56;;;25.08;29.42
45078;BME280;60508;42.622;25.416;2023-05-07T09:33:38;97043.56;;;24.76;29.40
45078;BME280;60508;42.622;25.416;2023-05-07T09:36:07;97046.09;;;24.34;30.51
45078;BME280;60508;42.622;25.416;2023-05-07T09:38:37;97045.47;;;24.20;29.97
45078;BME280;60508;42.622;25.416;2023-05-07T09:41:07;97040.16;;;23.54;30.34
45078;BME280;60508;42.622;25.416;2023-05-07T09:43:41;97029.88;;;22.53;31.67
45078;BME280;60508;42.622;25.416;2023-05-07T09:46:14;97024.00;;;22.14;32.07
45078;BME280;60508;42.622;25.416;2023-05-07T09:48:46;97028.91;;;22.03;33.26
45078;BME280;60508;42.622;25.416;2023-05-07T09:51:30;97025.91;;;21.91;32.87
45078;BME280;60508;42.622;25.416;2023-05-07T09:53:59;97032.63;;;21.62;32.79
45078;BME280;60508;42.622;25.416;2023-05-07T09:56:29;97036.09;;;21.77;34.17
45078;BME280;60508;42.622;25.416;2023-05-07T09:58:59;97021.78;;;22.25;33.80
45078;BME280;60508;42.622;25.416;2023-05-07T10:01:27;97019.09;;;22.56;33.22
45078;BME280;60508;42.622;25.416;2023-05-07T10:03:54;97023.63;;;22.70;33.47
45078;BME280;60508;42.622;25.416;2023-05-07T10:06:24;97032.31;;;22.63;32.74
45078;BME280;60508;42.622;25.416;2023-05-07T10:08:52;97017.38;;;22.15;32.70
45078;BME280;60508;42.622;25.416;2023-05-07T10:11:21;97016.75;;;22.41;33.41
45078;BME280;60508;42.622;25.416;2023-05-07T10:13:48;97021.63;;;21.76;33.18
45078;BME280;60508;42.622;25.416;2023-05-07T10:16:15;97012.97;;;21.83;33.75
45078;BME280;60508;42.622;25.416;2023-05-07T10:18:46;97012.28;;;21.55;34.61
45078;BME280;60508;42.622;25.416;2023-05-07T10:21:18;97012.84;;;21.65;34.08
45078;BME280;60508;42.622;25.416;2023-05-07T10:23:47;97011.25;;;21.64;34.08
45078;BME280;60508;42.622;25.416;2023-05-07T10:26:14;96998.47;;;21.74;33.60
45078;BME280;60508;42.622;25.416;2023-05-07T10:28:46;97003.38;;;21.49;34.01
45078;BME280;60508;42.622;25.416;2023-05-07T10:33:53;96996.81;;;21.50;34.45
45078;BME280;60508;42.622;25.416;2023-05-07T10:36:23;96985.38;;;21.48;33.58
45078;BME280;60508;42.622;25.416;2023-05-07T10:38:52;96978.47;;;21.50;34.16
45078;BME280;60508;42.622;25.416;2023-05-07T10:41:18;96994.72;;;21.92;34.33
45078;BME280;60508;42.622;25.416;2023-05-07T10:43:46;96980.84;;;21.88;33.49
45078;BME280;60508;42.622;25.416;2023-05-07T10:46:38;96986.41;;;22.29;33.07
45078;BME280;60508;42.622;25.416;2023-05-07T10:49:13;96982.81;;;22.51;33.21
45078;BME280;60508;42.622;25.416;2023-05-07T10:52:25;96984.19;;;22.39;33.20
45078;BME280;60508;42.622;25.416;2023-05-07T10:57:51;96960.53;;;22.84;32.36
45078;BME280;60508;42.622;25.416;2023-05-07T11:05:29;96963.38;;;23.45;30.83
45078;BME280;60508;42.622;25.416;2023-05-07T11:08:19;96969.81;;;23.49;31.67
45078;BME280;60508;42.622;25.416;2023-05-07T11:11:01;96969.63;;;23.80;31.54
45078;BME280;60508;42.622;25.416;2023-05-07T11:13:48;96960.41;;;24.02;31.13
45078;BME280;60508;42.622;25.416;2023-05-07T11:16:45;96960.50;;;24.23;31.60
45078;BME280;60508;42.622;25.416;2023-05-07T11:19:52;96966.81;;;24.24;29.72
45078;BME280;60508;42.622;25.416;2023-05-07T11:22:39;96958.66;;;24.45;30.37
45078;BME280;60508;42.622;25.416;2023-05-07T11:25:24;96959.56;;;24.67;29.92
45078;BME280;60508;42.622;25.416;2023-05-07T11:28:11;96946.09;;;24.74;29.34
45078;BME280;60508;42.622;25.416;2023-05-07T11:30:48;96951.63;;;24.95;29.61
45078;BME280;60508;42.622;25.416;2023-05-07T11:33:17;96952.72;;;25.24;28.64
45078;BME280;60508;42.622;25.416;2023-05-07T11:35:45;96945.56;;;25.52;27.92
45078;BME280;60508;42.622;25.416;2023-05-07T11:38:13;96944.72;;;24.89;29.77
45078;BME280;60508;42.622;25.416;2023-05-07T11:40:57;96949.78;;;24.48;29.20
45078;BME280;60508;42.622;25.416;2023-05-07T11:43:24;96947.34;;;24.47;29.60
45078;BME280;60508;42.622;25.416;2023-05-07T11:45:50;96950.34;;;25.43;28.75
45078;BME280;60508;42.622;25.416;2023-05-07T11:48:17;96931.81;;;26.19;28.58
45078;BME280;60508;42.622;25.416;2023-05-07T11:51:12;96934.78;;;26.14;27.41
45078;BME280;60508;42.622;25.416;2023-05-07T11:53:41;96946.53;;;26.48;26.86
45078;BME280;60508;42.622;25.416;2023-05-07T11:56:11;96941.38;;;27.77;25.97
45078;BME280;60508;42.622;25.416;2023-05-07T11:58:39;96940.53;;;27.20;26.09
45078;BME280;60508;42.622;25.416;2023-05-07T12:01:07;96918.84;;;25.74;27.98
45078;BME280;60508;42.622;25.416;2023-05-07T12:03:36;96932.66;;;26.82;27.39
45078;BME280;60508;42.622;25.416;2023-05-07T12:06:05;96935.34;;;27.72;26.07
45078;BME280;60508;42.622;25.416;2023-05-07T12:08:32;96929.91;;;28.35;25.50
45078;BME280;60508;42.622;25.416;2023-05-07T12:10:59;96929.38;;;29.13;24.23
45078;BME280;60508;42.622;25.416;2023-05-07T12:13:25;96930.31;;;29.95;23.08
45078;BME280;60508;42.622;25.416;2023-05-07T12:15:52;96924.91;;;30.49;22.14
45078;BME280;60508;42.622;25.416;2023-05-07T12:18:19;96931.69;;;30.28;22.70
45078;BME280;60508;42.622;25.416;2023-05-07T12:20:46;96917.00;;;27.51;24.73
45078;BME280;60508;42.622;25.416;2023-05-07T12:23:13;96917.50;;;28.29;24.92
45078;BME280;60508;42.622;25.416;2023-05-07T12:25:40;96915.66;;;29.17;24.03
45078;BME280;60508;42.622;25.416;2023-05-07T12:28:17;96913.59;;;29.13;23.72
45078;BME280;60508;42.622;25.416;2023-05-07T12:30:45;96916.16;;;30.70;22.39
45078;BME280;60508;42.622;25.416;2023-05-07T12:33:11;96911.94;;;31.33;21.48
45078;BME280;60508;42.622;25.416;2023-05-07T12:35:40;96903.38;;;31.49;21.24
45078;BME280;60508;42.622;25.416;2023-05-07T12:38:14;96907.38;;;32.23;20.90
45078;BME280;60508;42.622;25.416;2023-05-07T12:40:43;96896.19;;;31.44;21.70
45078;BME280;60508;42.622;25.416;2023-05-07T12:45:49;96898.19;;;28.96;24.58
45078;BME280;60508;42.622;25.416;2023-05-07T12:48:16;96889.81;;;28.10;25.45
45078;BME280;60508;42.622;25.416;2023-05-07T12:50:42;96914.88;;;27.32;26.07
45078;BME280;60508;42.622;25.416;2023-05-07T12:53:10;96908.97;;;26.19;28.00
45078;BME280;60508;42.622;25.416;2023-05-07T12:55:45;96894.41;;;26.18;27.71
45078;BME280;60508;42.622;25.416;2023-05-07T12:58:33;96896.16;;;25.90;28.16
45078;BME280;60508;42.622;25.416;2023-05-07T13:01:03;96903.03;;;26.78;27.68
45078;BME280;60508;42.622;25.416;2023-05-07T13:03:31;96893.28;;;27.62;26.59
45078;BME280;60508;42.622;25.416;2023-05-07T13:05:59;96895.09;;;28.15;25.53
45078;BME280;60508;42.622;25.416;2023-05-07T13:08:31;96893.75;;;28.25;25.70
45078;BME280;60508;42.622;25.416;2023-05-07T13:10:59;96896.94;;;27.95;25.84